sensor_id;sensor_type;location;lat;lon;timestamp;pressure;altitude;pressure_sealevel;temperature;humidity
68077;BME280;54866;53.458;14.540;2023-04-02T00:00:15;100462.43;;;1.90;86.32
68077;BME280;54866;53.458;14.540;2023-04-02T00:02:47;100464.31;;;1.91;86.43
68077;BME280;54866;53.458;14.540;2023-04-02T00:05:38;100464.85;;;1.90;86.32
68077;BME280;54866;53.458;14.540;2023-04-02T00:08:24;100469.38;;;1.90;86.32
68077;BME280;54866;53.458;14.540;2023-04-02T00:10:56;100475.64;;;1.90;86.13
68077;BME280;54866;53.458;14.540;2023-04-02T00:13:31;100478.26;;;1.90;86.06
68077;BME280;54866;53.458;14.540;2023-04-02T00:16:02;100478.94;;;1.90;86.49
68077;BME280;54866;53.458;14.540;2023-04-02T00:18:33;100488.64;;;1.91;86.30
68077;BME280;54866;53.458;14.540;2023-04-02T00:21:10;100489.85;;;1.91;86.27
68077;BME280;54866;53.458;14.540;2023-04-02T00:23:43;100488.62;;;1.91;86.54
68077;BME280;54866;53.458;14.540;2023-04-02T00:26:30;100489.08;;;1.93;86.53
68077;BME280;54866;53.458;14.540;2023-04-02T00:29:01;100487.66;;;1.93;86.64
68077;BME280;54866;53.458;14.540;2023-04-02T00:31:32;100492.52;;;1.94;86.70
68077;BME280;54866;53.458;14.540;2023-04-02T00:34:03;100495.48;;;1.93;86.76
68077;BME280;54866;53.458;14.540;2023-04-02T00:36:33;100498.06;;;1.94;86.44
68077;BME280;54866;53.458;14.540;2023-04-02T00:39:10;100497.54;;;1.94;86.70
68077;BME280;54866;53.458;14.540;2023-04-02T00:41:42;100498.23;;;1.94;86.77
68077;BME280;54866;53.458;14.540;2023-04-02T00:44:15;100505.70;;;1.94;86.87
68077;BME280;54866;53.458;14.540;2023-04-02T00:46:49;100506.42;;;1.93;86.57
68077;BME280;54866;53.458;14.540;2023-04-02T00:49:26;100507.99;;;1.93;86.33
68077;BME280;54866;53.458;14.540;2023-04-02T00:52:00;100509.56;;;1.93;86.52
68077;BME280;54866;53.458;14.540;2023-04-02T00:54:36;100513.84;;;1.95;86.75
68077;BME280;54866;53.458;14.540;2023-04-02T00:57:15;100515.20;;;1.95;86.72
68077;BME280;54866;53.458;14.540;2023-04-02T00:59:56;100517.98;;;1.95;86.89
68077;BME280;54866;53.458;14.540;2023-04-02T01:02:28;100522.45;;;1.96;87.04
68077;BME280;54866;53.458;14.540;2023-04-02T01:04:59;100523.64;;;1.97;87.38
68077;BME280;54866;53.458;14.540;2023-04-02T01:07:49;100525.86;;;1.97;87.15
68077;BME280;54866;53.458;14.540;2023-04-02T01:10:40;100530.86;;;1.98;87.45
68077;BME280;54866;53.458;14.540;2023-04-02T01:13:21;100528.63;;;1.98;87.53
68077;BME280;54866;53.458;14.540;2023-04-02T01:16:01;100531.48;;;1.96;87.84
68077;BME280;54866;53.458;14.540;2023-04-02T01:18:49;100534.27;;;1.96;88.01
68077;BME280;54866;53.458;14.540;2023-04-02T01:21:41;100542.27;;;1.96;87.92
68077;BME280;54866;53.458;14.540;2023-04-02T01:24:14;100541.05;;;1.96;88.13
68077;BME280;54866;53.458;14.540;2023-04-02T01:26:51;100549.21;;;1.96;87.89
68077;BME280;54866;53.458;14.540;2023-04-02T01:29:23;100555.27;;;1.97;87.84
68077;BME280;54866;53.458;14.540;2023-04-02T01:31:56;100558.87;;;1.97;87.68
68077;BME280;54866;53.458;14.540;2023-04-02T01:34:27;100560.73;;;1.98;87.72
68077;BME280;54866;53.458;14.540;2023-04-02T01:37:09;100562.12;;;1.99;87.54
68077;BME280;54866;53.458;14.540;2023-04-02T01:39:53;100568.48;;;1.97;87.53
68077;BME280;54866;53.458;14.540;2023-04-02T01:42:27;100573.26;;;1.98;87.47
68077;BME280;54866;53.458;14.540;2023-04-02T01:45:04;100571.36;;;1.98;87.38
68077;BME280;54866;53.458;14.540;2023-04-02T01:47:38;100576.90;;;1.98;87.38
68077;BME280;54866;53.458;14.540;2023-04-02T01:50:24;100580.93;;;1.98;87.23
68077;BME280;54866;53.458;14.540;2023-04-02T01:53:00;100584.22;;;1.98;87.04
68077;BME280;54866;53.458;14.540;2023-04-02T01:55:38;100584.27;;;1.97;86.94
68077;BME280;54866;53.458;14.540;2023-04-02T01:58:09;100589.11;;;1.98;86.68
68077;BME280;54866;53.458;14.540;2023-04-02T02:00:44;100593.79;;;1.97;86.46
68077;BME280;54866;53.458;14.540;2023-04-02T02:03:16;100596.71;;;1.98;86.51
68077;BME280;54866;53.458;14.540;2023-04-02T02:05:47;100601.73;;;1.99;86.31
68077;BME280;54866;53.458;14.540;2023-04-02T02:08:26;100600.84;;;1.99;86.29
68077;BME280;54866;53.458;14.540;2023-04-02T02:10:59;100602.60;;;1.99;86.48
68077;BME280;54866;53.458;14.540;2023-04-02T02:13:28;100608.00;;;1.98;86.69
68077;BME280;54866;53.458;14.540;2023-04-02T02:16:00;100606.79;;;1.99;86.25
68077;BME280;54866;53.458;14.540;2023-04-02T02:18:31;100611.42;;;1.99;86.66
68077;BME280;54866;53.458;14.540;2023-04-02T02:21:04;100615.81;;;1.99;86.34
68077;BME280;54866;53.458;14.540;2023-04-02T02:23:36;100619.13;;;1.98;86.45
68077;BME280;54866;53.458;14.540;2023-04-02T02:26:06;100619.14;;;1.98;86.39
68077;BME280;54866;53.458;14.540;2023-04-02T02:28:40;100620.57;;;1.97;86.34
68077;BME280;54866;53.458;14.540;2023-04-02T02:31:14;100625.17;;;1.95;86.07
68077;BME280;54866;53.458;14.540;2023-04-02T02:33:48;100636.41;;;1.96;85.80
68077;BME280;54866;53.458;14.540;2023-04-02T02:36:23;100638.83;;;1.97;85.35
68077;BME280;54866;53.458;14.540;2023-04-02T02:38:59;100641.76;;;1.97;85.34
68077;BME280;54866;53.458;14.540;2023-04-02T02:41:36;100643.11;;;1.98;84.48
68077;BME280;54866;53.458;14.540;2023-04-02T02:44:12;100650.88;;;1.99;84.22
68077;BME280;54866;53.458;14.540;2023-04-02T02:46:47;100648.91;;;2.01;84.09
68077;BME280;54866;53.458;14.540;2023-04-02T02:49:20;100649.96;;;2.00;83.45
68077;BME280;54866;53.458;14.540;2023-04-02T02:51:58;100661.70;;;2.02;83.40
68077;BME280;54866;53.458;14.540;2023-04-02T02:54:30;100661.36;;;2.02;83.29
68077;BME280;54866;53.458;14.540;2023-04-02T02:57:02;100672.95;;;2.03;83.04
68077;BME280;54866;53.458;14.540;2023-04-02T02:59:32;100669.27;;;2.04;82.99
68077;BME280;54866;53.458;14.540;2023-04-02T03:02:02;100672.63;;;2.02;83.13
68077;BME280;54866;53.458;14.540;2023-04-02T03:04:34;100675.20;;;2.03;83.31
68077;BME280;54866;53.458;14.540;2023-04-02T03:07:05;100679.14;;;2.04;83.39
68077;BME280;54866;53.458;14.540;2023-04-02T03:09:44;100684.02;;;2.04;83.41
68077;BME280;54866;53.458;14.540;2023-04-02T03:12:27;100688.70;;;2.04;83.93
68077;BME280;54866;53.458;14.540;2023-04-02T03:15:04;100690.92;;;2.05;83.92
68077;BME280;54866;53.458;14.540;2023-04-02T03:17:39;100694.73;;;2.06;83.94
68077;BME280;54866;53.458;14.540;2023-04-02T03:20:16;100703.21;;;2.06;83.91
68077;BME280;54866;53.458;14.540;2023-04-02T03:22:52;100703.54;;;2.07;84.24
68077;BME280;54866;53.458;14.540;2023-04-02T03:25:30;100710.11;;;2.07;84.27
68077;BME280;54866;53.458;14.540;2023-04-02T03:28:02;100716.20;;;2.08;84.28
68077;BME280;54866;53.458;14.540;2023-04-02T03:30:39;100721.54;;;2.09;84.39
68077;BME280;54866;53.458;14.540;2023-04-02T03:33:13;100726.95;;;2.08;84.62
68077;BME280;54866;53.458;14.540;2023-04-02T03:35:47;100730.42;;;2.09;84.72
68077;BME280;54866;53.458;14.540;2023-04-02T03:38:21;100735.11;;;2.09;84.89
68077;BME280;54866;53.458;14.540;2023-04-02T03:41:02;100732.35;;;2.08;84.41
68077;BME280;54866;53.458;14.540;2023-04-02T03:43:35;100740.16;;;2.09;84.08
68077;BME280;54866;53.458;14.540;2023-04-02T03:46:22;100746.60;;;2.08;83.86
68077;BME280;54866;53.458;14.540;2023-04-02T03:48:55;100755.64;;;2.08;84.00
68077;BME280;54866;53.458;14.540;2023-04-02T03:51:29;100757.04;;;2.08;83.65
68077;BME280;54866;53.458;14.540;2023-04-02T03:53:59;100762.75;;;2.08;84.02
68077;BME280;54866;53.458;14.540;2023-04-02T03:56:30;100765.60;;;2.06;84.05
68077;BME280;54866;53.458;14.540;2023-04-02T03:59:12;100771.27;;;2.08;84.43
68077;BME280;54866;53.458;14.540;2023-04-02T04:01:51;100780.65;;;2.08;84.44
68077;BME280;54866;53.458;14.540;2023-04-02T04:04:23;100780.65;;;2.08;84.58
68077;BME280;54866;53.458;14.540;2023-04-02T04:06:56;100788.64;;;2.08;84.70
68077;BME280;54866;53.458;14.540;2023-04-02T04:09:30;100787.62;;;2.07;84.89
68077;BME280;54866;53.458;14.540;2023-04-02T04:12:08;100790.30;;;2.06;84.92
68077;BME280;54866;53.458;14.540;2023-04-02T04:14:45;100794.65;;;2.06;84.44
68077;BME280;54866;53.458;14.540;2023-04-02T04:17:20;100798.48;;;2.05;84.56
68077;BME280;54866;53.458;14.540;2023-04-02T04:20:01;100802.90;;;2.04;84.14
68077;BME280;54866;53.458;14.540;2023-04-02T04:22:35;100805.70;;;2.03;84.08
68077;BME280;54866;53.458;14.540;2023-04-02T04:25:16;100808.52;;;2.02;83.68
68077;BME280;54866;53.458;14.540;2023-04-02T04:27:54;100813.88;;;2.03;83.65
68077;BME280;54866;53.458;14.540;2023-04-02T04:30:29;100819.27;;;2.03;83.73
68077;BME280;54866;53.458;14.540;2023-04-02T04:33:03;100830.02;;;2.04;83.91
68077;BME280;54866;53.458;14.540;2023-04-02T04:35:42;100830.34;;;2.04;83.98
68077;BME280;54866;53.458;14.540;2023-04-02T04:38:16;100834.66;;;2.04;83.88
68077;BME280;54866;53.458;14.540;2023-04-02T04:40:52;100843.77;;;2.07;83.81
68077;BME280;54866;53.458;14.540;2023-04-02T04:43:28;100844.30;;;2.07;83.35
68077;BME280;54866;53.458;14.540;2023-04-02T04:46:02;100850.16;;;2.09;82.99
68077;BME280;54866;53.458;14.540;2023-04-02T04:48:37;100853.77;;;2.09;82.64
68077;BME280;54866;53.458;14.540;2023-04-02T04:51:18;100858.40;;;2.11;82.78
68077;BME280;54866;53.458;14.540;2023-04-02T04:53:50;100857.00;;;2.12;82.07
68077;BME280;54866;53.458;14.540;2023-04-02T04:56:24;100863.88;;;2.13;81.61
68077;BME280;54866;53.458;14.540;2023-04-02T04:58:59;100869.70;;;2.16;81.66
68077;BME280;54866;53.458;14.540;2023-04-02T05:01:35;100876.32;;;2.19;80.91
68077;BME280;54866;53.458;14.540;2023-04-02T05:04:12;100880.06;;;2.21;80.78
68077;BME280;54866;53.458;14.540;2023-04-02T05:06:50;100884.14;;;2.23;80.89
68077;BME280;54866;53.458;14.540;2023-04-02T05:09:23;100886.64;;;2.26;80.71
68077;BME280;54866;53.458;14.540;2023-04-02T05:12:01;100896.58;;;2.30;80.30
68077;BME280;54866;53.458;14.540;2023-04-02T05:14:36;100890.63;;;2.35;79.72
68077;BME280;54866;53.458;14.540;2023-04-02T05:17:11;100896.02;;;2.43;79.17
68077;BME280;54866;53.458;14.540;2023-04-02T05:19:46;100899.27;;;2.53;78.45
68077;BME280;54866;53.458;14.540;2023-04-02T05:22:24;100900.09;;;3.57;76.20
68077;BME280;54866;53.458;14.540;2023-04-02T05:25:08;100893.66;;;4.16;72.36
68077;BME280;54866;53.458;14.540;2023-04-02T05:27:45;100902.33;;;3.88;72.40
68077;BME280;54866;53.458;14.540;2023-04-02T05:30:35;100908.39;;;3.66;73.29
68077;BME280;54866;53.458;14.540;2023-04-02T05:33:17;100907.85;;;3.44;73.75
68077;BME280;54866;53.458;14.540;2023-04-02T05:35:52;100908.53;;;3.21;73.60
68077;BME280;54866;53.458;14.540;2023-04-02T05:38:26;100922.02;;;3.07;74.33
68077;BME280;54866;53.458;14.540;2023-04-02T05:41:02;100917.98;;;2.96;74.19
68077;BME280;54866;53.458;14.540;2023-04-02T05:43:34;100922.11;;;2.85;73.35
68077;BME280;54866;53.458;14.540;2023-04-02T05:46:12;100924.88;;;2.77;73.50
68077;BME280;54866;53.458;14.540;2023-04-02T05:48:44;100926.98;;;2.72;73.43
68077;BME280;54866;53.458;14.540;2023-04-02T05:51:23;100933.52;;;2.70;72.64
68077;BME280;54866;53.458;14.540;2023-04-02T05:53:56;100933.60;;;2.76;73.42
68077;BME280;54866;53.458;14.540;2023-04-02T05:56:30;100940.07;;;2.84;73.23
68077;BME280;54866;53.458;14.540;2023-04-02T05:59:06;100937.83;;;2.88;72.92
68077;BME280;54866;53.458;14.540;2023-04-02T06:01:41;100938.96;;;2.89;72.59
68077;BME280;54866;53.458;14.540;2023-04-02T06:04:20;100945.13;;;2.92;72.22
68077;BME280;54866;53.458;14.540;2023-04-02T06:06:59;100952.85;;;2.94;71.94
68077;BME280;54866;53.458;14.540;2023-04-02T06:09:36;100958.67;;;3.13;72.16
68077;BME280;54866;53.458;14.540;2023-04-02T06:12:17;100957.71;;;3.31;70.30
68077;BME280;54866;53.458;14.540;2023-04-02T06:14:48;100966.55;;;3.63;69.42
68077;BME280;54866;53.458;14.540;2023-04-02T06:17:18;100967.34;;;5.47;65.21
68077;BME280;54866;53.458;14.540;2023-04-02T06:19:49;100966.86;;;6.48;61.57
68077;BME280;54866;53.458;14.540;2023-04-02T06:22:24;100966.54;;;7.75;58.66
68077;BME280;54866;53.458;14.540;2023-04-02T06:24:59;100963.65;;;7.76;54.83
68077;BME280;54866;53.458;14.540;2023-04-02T06:27:30;100973.19;;;7.41;55.11
68077;BME280;54866;53.458;14.540;2023-04-02T06:30:08;100983.58;;;6.86;56.00
68077;BME280;54866;53.458;14.540;2023-04-02T06:32:43;100989.85;;;6.13;56.88
68077;BME280;54866;53.458;14.540;2023-04-02T06:35:14;100994.80;;;5.69;59.02
68077;BME280;54866;53.458;14.540;2023-04-02T06:37:46;100991.83;;;5.23;59.76
68077;BME280;54866;53.458;14.540;2023-04-02T06:40:30;100997.23;;;4.85;61.26
68077;BME280;54866;53.458;14.540;2023-04-02T06:43:05;101005.63;;;4.56;62.34
68077;BME280;54866;53.458;14.540;2023-04-02T06:45:39;101013.20;;;4.36;63.47
68077;BME280;54866;53.458;14.540;2023-04-02T06:48:16;101017.36;;;4.26;64.51
68077;BME280;54866;53.458;14.540;2023-04-02T06:50:50;101024.30;;;4.23;65.43
68077;BME280;54866;53.458;14.540;2023-04-02T06:53:24;101028.97;;;4.24;65.42
68077;BME280;54866;53.458;14.540;2023-04-02T06:55:59;101027.58;;;4.38;65.60
68077;BME280;54866;53.458;14.540;2023-04-02T06:58:31;101030.96;;;4.88;63.70
68077;BME280;54866;53.458;14.540;2023-04-02T07:01:00;101034.66;;;5.25;62.35
68077;BME280;54866;53.458;14.540;2023-04-02T07:03:32;101032.24;;;6.27;58.51
68077;BME280;54866;53.458;14.540;2023-04-02T07:06:03;101040.77;;;6.38;57.47
68077;BME280;54866;53.458;14.540;2023-04-02T07:08:34;101046.58;;;6.25;58.79
68077;BME280;54866;53.458;14.540;2023-04-02T07:11:03;101049.70;;;6.16;59.35
68077;BME280;54866;53.458;14.540;2023-04-02T07:13:33;101056.13;;;6.23;59.51
68077;BME280;54866;53.458;14.540;2023-04-02T07:16:03;101053.44;;;6.11;59.67
68077;BME280;54866;53.458;14.540;2023-04-02T07:18:33;101061.36;;;6.01;59.74
68077;BME280;54866;53.458;14.540;2023-04-02T07:21:03;101065.28;;;5.82;59.71
68077;BME280;54866;53.458;14.540;2023-04-02T07:23:33;101066.65;;;5.79;60.51
68077;BME280;54866;53.458;14.540;2023-04-02T07:26:04;101076.23;;;6.83;58.73
68077;BME280;54866;53.458;14.540;2023-04-02T07:28:34;101070.35;;;7.43;56.60
68077;BME280;54866;53.458;14.540;2023-04-02T07:31:07;101073.66;;;6.98;56.09
68077;BME280;54866;53.458;14.540;2023-04-02T07:33:39;101087.32;;;6.57;57.01
68077;BME280;54866;53.458;14.540;2023-04-02T07:36:13;101088.49;;;6.46;57.54
68077;BME280;54866;53.458;14.540;2023-04-02T07:38:44;101091.22;;;6.44;57.37
68077;BME280;54866;53.458;14.540;2023-04-02T07:41:13;101085.59;;;6.32;57.54
68077;BME280;54866;53.458;14.540;2023-04-02T07:43:43;101091.77;;;6.27;58.12
68077;BME280;54866;53.458;14.540;2023-04-02T07:46:14;101097.50;;;6.05;58.86
68077;BME280;54866;53.458;14.540;2023-04-02T07:48:45;101102.31;;;5.94;60.13
68077;BME280;54866;53.458;14.540;2023-04-02T07:51:20;101100.35;;;5.87;60.03
68077;BME280;54866;53.458;14.540;2023-04-02T07:53:51;101107.77;;;5.69;60.41
68077;BME280;54866;53.458;14.540;2023-04-02T07:56:24;101111.60;;;5.55;61.11
68077;BME280;54866;53.458;14.540;2023-04-02T07:58:54;101114.57;;;5.49;61.70
68077;BME280;54866;53.458;14.540;2023-04-02T08:01:25;101120.27;;;5.43;62.16
68077;BME280;54866;53.458;14.540;2023-04-02T08:03:55;101126.48;;;5.68;61.66
68077;BME280;54866;53.458;14.540;2023-04-02T08:06:25;101126.14;;;6.64;58.97
68077;BME280;54866;53.458;14.540;2023-04-02T08:08:55;101130.12;;;7.15;57.34
68077;BME280;54866;53.458;14.540;2023-04-02T08:11:25;101129.14;;;8.15;54.73
68077;BME280;54866;53.458;14.540;2023-04-02T08:13:54;101129.86;;;8.23;53.09
68077;BME280;54866;53.458;14.540;2023-04-02T08:16:24;101134.99;;;8.65;52.43
68077;BME280;54866;53.458;14.540;2023-04-02T08:18:53;101132.28;;;9.65;49.65
68077;BME280;54866;53.458;14.540;2023-04-02T08:21:23;101131.66;;;10.34;45.23
68077;BME280;54866;53.458;14.540;2023-04-02T08:23:53;101130.43;;;11.05;43.37
68077;BME280;54866;53.458;14.540;2023-04-02T08:26:23;101139.86;;;10.68;43.12
68077;BME280;54866;53.458;14.540;2023-04-02T08:28:53;101146.18;;;11.26;43.01
68077;BME280;54866;53.458;14.540;2023-04-02T08:31:22;101143.42;;;11.30;41.94
68077;BME280;54866;53.458;14.540;2023-04-02T08:33:52;101145.77;;;12.03;41.62
68077;BME280;54866;53.458;14.540;2023-04-02T08:36:28;101137.24;;;13.94;37.90
68077;BME280;54866;53.458;14.540;2023-04-02T08:38:59;101135.89;;;15.71;34.49
68077;BME280;54866;53.458;14.540;2023-04-02T08:41:29;101134.84;;;17.10;32.45
68077;BME280;54866;53.458;14.540;2023-04-02T08:44:17;101131.09;;;17.84;31.47
68077;BME280;54866;53.458;14.540;2023-04-02T08:46:53;101133.66;;;18.70;29.63
68077;BME280;54866;53.458;14.540;2023-04-02T08:49:29;101134.16;;;19.33;28.19
68077;BME280;54866;53.458;14.540;2023-04-02T08:52:00;101134.80;;;19.14;28.75
68077;BME280;54866;53.458;14.540;2023-04-02T08:54:32;101131.96;;;17.44;29.77
68077;BME280;54866;53.458;14.540;2023-04-02T08:57:12;101133.66;;;17.94;29.86
68077;BME280;54866;53.458;14.540;2023-04-02T08:59:44;101140.36;;;18.97;27.86
68077;BME280;54866;53.458;14.540;2023-04-02T09:02:28;101141.44;;;19.60;25.80
68077;BME280;54866;53.458;14.540;2023-04-02T09:05:03;101140.92;;;20.75;26.33
68077;BME280;54866;53.458;14.540;2023-04-02T09:07:34;101142.20;;;21.23;24.39
68077;BME280;54866;53.458;14.540;2023-04-02T09:10:05;101154.45;;;19.42;26.64
68077;BME280;54866;53.458;14.540;2023-04-02T09:12:36;101159.72;;;17.37;29.37
68077;BME280;54866;53.458;14.540;2023-04-02T09:15:20;101174.22;;;15.57;31.94
68077;BME280;54866;53.458;14.540;2023-04-02T09:17:56;101178.35;;;14.48;33.97
68077;BME280;54866;53.458;14.540;2023-04-02T09:20:28;101180.43;;;13.86;34.65
68077;BME280;54866;53.458;14.540;2023-04-02T09:22:58;101182.13;;;15.56;31.60
68077;BME280;54866;53.458;14.540;2023-04-02T09:25:29;101174.83;;;17.15;29.56
68077;BME280;54866;53.458;14.540;2023-04-02T09:28:02;101179.16;;;18.33;27.13
68077;BME280;54866;53.458;14.540;2023-04-02T09:30:45;101188.85;;;19.14;26.84
68077;BME280;54866;53.458;14.540;2023-04-02T09:33:40;101185.33;;;20.32;25.45
68077;BME280;54866;53.458;14.540;2023-04-02T09:36:24;101186.20;;;21.27;25.18
68077;BME280;54866;53.458;14.540;2023-04-02T09:39:00;101187.58;;;22.08;24.05
68077;BME280;54866;53.458;14.540;2023-04-02T09:41:35;101196.34;;;22.14;22.41
68077;BME280;54866;53.458;14.540;2023-04-02T09:44:22;101193.71;;;22.03;22.72
68077;BME280;54866;53.458;14.540;2023-04-02T09:46:54;101201.80;;;22.15;23.31
68077;BME280;54866;53.458;14.540;2023-04-02T09:49:29;101205.58;;;21.29;24.54
68077;BME280;54866;53.458;14.540;2023-04-02T09:52:18;101217.21;;;19.06;26.78
68077;BME280;54866;53.458;14.540;2023-04-02T09:55:11;101234.86;;;16.54;29.64
68077;BME280;54866;53.458;14.540;2023-04-02T09:57:46;101245.67;;;14.37;32.83
68077;BME280;54866;53.458;14.540;2023-04-02T10:00:22;101253.26;;;13.34;34.56
68077;BME280;54866;53.458;14.540;2023-04-02T10:03:05;101250.02;;;13.50;35.11
68077;BME280;54866;53.458;14.540;2023-04-02T10:05:35;101255.23;;;13.16;35.18
68077;BME280;54866;53.458;14.540;2023-04-02T10:08:15;101256.86;;;12.84;35.81
68077;BME280;54866;53.458;14.540;2023-04-02T10:10:48;101258.98;;;13.37;35.39
68077;BME280;54866;53.458;14.540;2023-04-02T10:13:23;101246.66;;;14.72;32.35
68077;BME280;54866;53.458;14.540;2023-04-02T10:15:58;101246.77;;;15.72;30.91
68077;BME280;54866;53.458;14.540;2023-04-02T10:18:43;101244.39;;;16.63;29.97
68077;BME280;54866;53.458;14.540;2023-04-02T10:21:15;101241.14;;;17.73;28.48
68077;BME280;54866;53.458;14.540;2023-04-02T10:23:46;101239.27;;;18.60;27.48
68077;BME280;54866;53.458;14.540;2023-04-02T10:26:26;101240.72;;;19.17;26.61
68077;BME280;54866;53.458;14.540;2023-04-02T10:29:17;101240.41;;;18.36;26.87
68077;BME280;54866;53.458;14.540;2023-04-02T10:31:58;101263.95;;;15.96;29.59
68077;BME280;54866;53.458;14.540;2023-04-02T10:34:36;101273.58;;;14.24;32.06
68077;BME280;54866;53.458;14.540;2023-04-02T10:37:23;101282.86;;;12.59;34.84
68077;BME280;54866;53.458;14.540;2023-04-02T10:39:58;101285.53;;;11.48;36.90
68077;BME280;54866;53.458;14.540;2023-04-02T10:42:39;101294.63;;;10.97;37.39
68077;BME280;54866;53.458;14.540;2023-04-02T10:45:22;101299.45;;;11.19;38.42
68077;BME280;54866;53.458;14.540;2023-04-02T10:47:59;101300.66;;;12.23;36.88
68077;BME280;54866;53.458;14.540;2023-04-02T10:50:37;101291.34;;;13.42;35.47
68077;BME280;54866;53.458;14.540;2023-04-02T10:53:15;101285.11;;;15.09;33.23
68077;BME280;54866;53.458;14.540;2023-04-02T10:55:49;101299.48;;;15.88;31.58
68077;BME280;54866;53.458;14.540;2023-04-02T10:58:24;101298.34;;;15.36;32.19
68077;BME280;54866;53.458;14.540;2023-04-02T11:00:57;101301.72;;;14.14;33.89
68077;BME280;54866;53.458;14.540;2023-04-02T11:03:33;101311.64;;;12.78;35.26
68077;BME280;54866;53.458;14.540;2023-04-02T11:06:12;101314.45;;;11.60;36.73
68077;BME280;54866;53.458;14.540;2023-04-02T11:08:45;101324.52;;;10.93;37.95
68077;BME280;54866;53.458;14.540;2023-04-02T11:11:18;101332.45;;;10.68;38.79
68077;BME280;54866;53.458;14.540;2023-04-02T11:13:56;101331.40;;;11.16;39.26
68077;BME280;54866;53.458;14.540;2023-04-02T11:16:27;101335.73;;;11.17;39.08
68077;BME280;54866;53.458;14.540;2023-04-02T11:19:22;101343.05;;;11.21;39.28
68077;BME280;54866;53.458;14.540;2023-04-02T11:21:52;101342.45;;;10.89;39.41
68077;BME280;54866;53.458;14.540;2023-04-02T11:24:36;101350.81;;;11.16;39.18
68077;BME280;54866;53.458;14.540;2023-04-02T11:27:10;101350.80;;;11.41;38.38
68077;BME280;54866;53.458;14.540;2023-04-02T11:29:44;101350.44;;;11.39;38.62
68077;BME280;54866;53.458;14.540;2023-04-02T11:32:36;101347.35;;;11.94;38.00
68077;BME280;54866;53.458;14.540;2023-04-02T11:41:10;101372.48;;;13.39;35.31
68077;BME280;54866;53.458;14.540;2023-04-02T11:44:00;101374.30;;;13.23;34.66
68077;BME280;54866;53.458;14.540;2023-04-02T11:46:39;101374.10;;;12.43;35.73
68077;BME280;54866;53.458;14.540;2023-04-02T11:49:36;101377.91;;;11.91;36.34
68077;BME280;54866;53.458;14.540;2023-04-02T11:52:23;101385.55;;;11.53;37.29
68077;BME280;54866;53.458;14.540;2023-04-02T11:55:19;101388.64;;;12.51;37.10
68077;BME280;54866;53.458;14.540;2023-04-02T11:58:24;101392.06;;;12.76;35.78
68077;BME280;54866;53.458;14.540;2023-04-02T12:01:21;101398.20;;;12.72;35.80
68077;BME280;54866;53.458;14.540;2023-04-02T12:04:11;101402.65;;;12.55;35.55
68077;BME280;54866;53.458;14.540;2023-04-02T12:07:03;101405.08;;;12.40;36.16
68077;BME280;54866;53.458;14.540;2023-04-02T12:09:45;101410.90;;;12.70;36.15
68077;BME280;54866;53.458;14.540;2023-04-02T12:12:26;101407.67;;;13.10;35.62
68077;BME280;54866;53.458;14.540;2023-04-02T12:14:58;101418.36;;;12.55;35.93
68077;BME280;54866;53.458;14.540;2023-04-02T12:17:32;101421.71;;;11.88;36.72
68077;BME280;54866;53.458;14.540;2023-04-02T12:20:16;101422.59;;;11.13;37.95
68077;BME280;54866;53.458;14.540;2023-04-02T12:22:50;101427.02;;;11.46;38.23
68077;BME280;54866;53.458;14.540;2023-04-02T12:25:26;101429.16;;;11.53;38.03
68077;BME280;54866;53.458;14.540;2023-04-02T12:28:12;101438.45;;;12.18;37.41
68077;BME280;54866;53.458;14.540;2023-04-02T12:30:48;101429.14;;;13.23;36.14
68077;BME280;54866;53.458;14.540;2023-04-02T12:33:27;101430.98;;;13.49;34.68
68077;BME280;54866;53.458;14.540;2023-04-02T12:35:59;101432.25;;;13.22;34.97
68077;BME280;54866;53.458;14.540;2023-04-02T12:38:31;101449.61;;;12.47;35.58
68077;BME280;54866;53.458;14.540;2023-04-02T12:41:03;101454.45;;;11.88;37.02
68077;BME280;54866;53.458;14.540;2023-04-02T12:43:35;101457.08;;;12.00;37.69
68077;BME280;54866;53.458;14.540;2023-04-02T12:46:06;101458.94;;;12.06;37.42
68077;BME280;54866;53.458;14.540;2023-04-02T12:48:37;101458.35;;;12.12;37.29
68077;BME280;54866;53.458;14.540;2023-04-02T12:51:07;101448.09;;;12.48;36.40
68077;BME280;54866;53.458;14.540;2023-04-02T12:53:40;101460.02;;;12.64;36.13
68077;BME280;54866;53.458;14.540;2023-04-02T12:56:19;101461.41;;;13.29;35.00
68077;BME280;54866;53.458;14.540;2023-04-02T12:58:55;101457.25;;;13.26;33.83
68077;BME280;54866;53.458;14.540;2023-04-02T13:01:27;101462.80;;;13.62;34.39
68077;BME280;54866;53.458;14.540;2023-04-02T13:04:06;101459.02;;;14.11;34.06
68077;BME280;54866;53.458;14.540;2023-04-02T13:06:36;101461.63;;;14.72;33.10
68077;BME280;54866;53.458;14.540;2023-04-02T13:11:51;101459.84;;;14.95;31.75
68077;BME280;54866;53.458;14.540;2023-04-02T13:14:21;101464.09;;;14.35;32.86
68077;BME280;54866;53.458;14.540;2023-04-02T13:16:52;101476.02;;;13.84;33.54
68077;BME280;54866;53.458;14.540;2023-04-02T13:19:26;101470.14;;;14.03;33.51
68077;BME280;54866;53.458;14.540;2023-04-02T13:21:57;101469.71;;;13.97;33.74
68077;BME280;54866;53.458;14.540;2023-04-02T13:24:29;101478.69;;;13.32;34.01
68077;BME280;54866;53.458;14.540;2023-04-02T13:27:00;101490.52;;;12.88;34.94
68077;BME280;54866;53.458;14.540;2023-04-02T13:29:31;101485.48;;;13.13;35.09
68077;BME280;54866;53.458;14.540;2023-04-02T13:32:03;101483.84;;;13.50;34.24
68077;BME280;54866;53.458;14.540;2023-04-02T13:34:36;101487.42;;;13.66;34.66
68077;BME280;54866;53.458;14.540;2023-04-02T13:37:05;101490.48;;;13.76;34.95